createdAt,value
2022-10-30T00:00:28.564Z,7.05
2022-10-30T00:03:01.502Z,7.05
2022-10-30T00:05:34.720Z,6.99
2022-10-30T00:08:07.033Z,6.95
2022-10-30T00:10:40.121Z,6.94
2022-10-30T00:13:13.516Z,6.98
2022-10-30T00:15:51.297Z,6.97
2022-10-30T00:18:23.575Z,6.97
2022-10-30T00:20:56.578Z,6.86
2022-10-30T00:23:28.971Z,6.80
2022-10-30T00:26:05.965Z,6.78
2022-10-30T00:28:38.224Z,6.73
2022-10-30T00:31:10.990Z,6.68
2022-10-30T00:33:43.307Z,6.71
2022-10-30T00:36:16.299Z,6.77
2022-10-30T00:38:48.696Z,6.80
2022-10-30T00:41:23.177Z,6.76
2022-10-30T00:43:55.465Z,6.59
2022-10-30T00:46:30.908Z,6.57
2022-10-30T00:49:10.413Z,6.35
2022-10-30T00:51:47.398Z,6.40
2022-10-30T00:54:21.417Z,6.37
2022-10-30T00:56:54.326Z,6.37
2022-10-30T00:59:31.990Z,6.42
2022-10-30T01:02:06.924Z,6.40
2022-10-30T01:04:42.237Z,6.40
2022-10-30T01:07:16.476Z,6.42
2022-10-30T01:09:48.891Z,6.49
2022-10-30T01:12:21.562Z,6.48
2022-10-30T01:14:58.637Z,6.36
2022-10-30T01:17:56.505Z,6.41
2022-10-30T01:20:56.070Z,6.22
2022-10-30T01:23:38.639Z,6.18
2022-10-30T01:26:19.209Z,6.28
2022-10-30T01:29:05.661Z,6.16
2022-10-30T01:31:50.449Z,6.27
2022-10-30T01:34:34.106Z,6.21
2022-10-30T01:37:13.873Z,6.16
2022-10-30T01:39:46.691Z,6.20
2022-10-30T01:42:45.197Z,6.11
2022-10-30T01:45:31.916Z,6.21
2022-10-30T01:48:23.456Z,6.16
2022-10-30T01:51:10.997Z,6.18
2022-10-30T01:53:51.515Z,6.20
2022-10-30T01:56:36.473Z,6.27
2022-10-30T01:59:15.860Z,6.18
2022-10-30T02:01:48.933Z,6.21
2022-10-30T02:04:21.667Z,6.15
2022-10-30T02:06:56.522Z,6.27
2022-10-30T02:09:29.825Z,6.26
2022-10-30T02:12:03.940Z,6.24
2022-10-30T02:14:41.537Z,6.18
2022-10-30T02:17:14.260Z,6.26
2022-10-30T02:19:47.283Z,6.17
2022-10-30T02:22:20.424Z,6.22
2022-10-30T02:24:52.830Z,6.20
2022-10-30T02:27:29.265Z,6.15
2022-10-30T02:30:01.604Z,6.09
2022-10-30T02:32:34.233Z,5.95
2022-10-30T02:35:07.301Z,6.13
2022-10-30T02:37:40.265Z,6.11
2022-10-30T02:40:13.092Z,6.12
2022-10-30T02:42:50.803Z,6.13
2022-10-30T02:45:23.162Z,6.06
2022-10-30T02:47:55.779Z,5.98
2022-10-30T02:50:28.508Z,6.07
2022-10-30T02:53:01.706Z,5.99
2022-10-30T02:55:34.328Z,6.06
2022-10-30T02:58:06.707Z,6.10
2022-10-30T03:00:39.047Z,6.15
2022-10-30T03:03:11.430Z,6.22
2022-10-30T03:05:44.294Z,6.27
2022-10-30T03:08:17.269Z,6.14
2022-10-30T03:10:49.625Z,6.11
2022-10-30T03:13:21.937Z,6.08
2022-10-30T03:15:59.600Z,6.07
2022-10-30T03:18:32.263Z,5.96
2022-10-30T03:21:10.021Z,5.90
2022-10-30T03:23:43.405Z,5.97
2022-10-30T03:26:16.598Z,5.99
2022-10-30T03:29:03.268Z,5.94
2022-10-30T03:31:35.785Z,6.01
2022-10-30T03:34:21.469Z,6.10
2022-10-30T03:36:53.821Z,6.30
2022-10-30T03:39:27.270Z,6.43
2022-10-30T03:41:59.608Z,6.35
2022-10-30T03:44:32.942Z,6.50
2022-10-30T03:47:05.433Z,6.71
2022-10-30T03:49:45.672Z,6.48
2022-10-30T03:52:22.764Z,6.60
2022-10-30T03:54:55.948Z,6.71
2022-10-30T03:57:28.266Z,6.81
2022-10-30T04:00:24.210Z,6.81
2022-10-30T04:03:07.139Z,6.82
2022-10-30T04:05:42.117Z,6.97
2022-10-30T04:08:15.338Z,7.02
2022-10-30T04:10:48.907Z,7.22
2022-10-30T04:13:21.245Z,7.33
2022-10-30T04:15:58.140Z,7.18
2022-10-30T04:18:31.358Z,7.20
2022-10-30T04:21:04.097Z,7.22
2022-10-30T04:23:39.159Z,7.23
2022-10-30T04:26:12.186Z,7.27
2022-10-30T04:28:47.576Z,7.30
2022-10-30T04:31:20.335Z,7.25
2022-10-30T04:33:52.638Z,7.26
2022-10-30T04:36:30.023Z,7.27
2022-10-30T04:39:02.719Z,7.23
2022-10-30T04:41:36.294Z,7.23
2022-10-30T04:44:16.226Z,7.20
2022-10-30T04:46:48.582Z,7.20
2022-10-30T04:49:20.901Z,7.20
2022-10-30T04:51:53.845Z,7.19
2022-10-30T04:54:27.987Z,7.17
2022-10-30T04:57:00.993Z,7.18
2022-10-30T04:59:33.388Z,7.20
2022-10-30T05:02:06.312Z,7.10
2022-10-30T05:04:38.721Z,7.07
2022-10-30T05:07:11.729Z,6.99
2022-10-30T05:09:44.153Z,7.00
2022-10-30T05:12:18.772Z,7.04
2022-10-30T05:14:58.110Z,7.07
2022-10-30T05:20:08.768Z,6.98
2022-10-30T05:22:41.158Z,6.97
2022-10-30T05:25:15.213Z,6.94
2022-10-30T05:27:48.221Z,6.96
2022-10-30T05:30:20.549Z,6.98
2022-10-30T05:32:57.906Z,7.04
2022-10-30T05:35:32.037Z,7.05
2022-10-30T05:38:07.135Z,7.10
2022-10-30T05:40:39.533Z,7.04
2022-10-30T05:43:12.608Z,7.05
2022-10-30T05:45:48.488Z,7.08
2022-10-30T05:48:20.854Z,7.11
2022-10-30T05:50:55.457Z,7.16
2022-10-30T05:59:28.646Z,6.70
2022-10-30T06:02:01.467Z,6.68
2022-10-30T06:04:34.081Z,6.72
2022-10-30T06:07:10.260Z,6.81
2022-10-30T06:09:43.012Z,6.91
2022-10-30T06:12:33.998Z,6.99
2022-10-30T06:15:18.085Z,7.08
2022-10-30T06:17:50.685Z,7.16
2022-10-30T06:20:30.044Z,7.23
2022-10-30T06:23:20.835Z,7.39
2022-10-30T06:25:57.585Z,7.48
2022-10-30T06:28:39.835Z,7.56
2022-10-30T06:31:12.940Z,7.61
2022-10-30T06:33:45.368Z,7.51
2022-10-30T06:36:19.040Z,7.56
2022-10-30T06:38:52.053Z,7.54
2022-10-30T06:41:30.807Z,7.64
2022-10-30T06:44:35.649Z,7.89
2022-10-30T06:47:08.720Z,8.08
2022-10-30T06:49:41.125Z,8.27
2022-10-30T06:52:13.532Z,8.45
2022-10-30T06:54:46.944Z,8.64
2022-10-30T06:57:42.363Z,8.89
2022-10-30T07:00:33.767Z,9.15
2022-10-30T07:03:25.427Z,9.38
2022-10-30T07:05:58.741Z,9.56
2022-10-30T07:08:31.923Z,9.71
2022-10-30T07:11:04.528Z,9.92
2022-10-30T07:13:39.763Z,10.11
2022-10-30T07:16:30.862Z,10.32
2022-10-30T07:19:04.884Z,10.43
2022-10-30T07:21:39.039Z,10.64
2022-10-30T07:24:11.953Z,10.89
2022-10-30T07:27:22.561Z,11.13
2022-10-30T07:30:18.369Z,11.33
2022-10-30T07:33:10.679Z,11.53
2022-10-30T07:36:10.273Z,11.77
2022-10-30T07:38:56.239Z,11.94
2022-10-30T07:41:51.469Z,12.14
2022-10-30T07:44:51.411Z,12.35
2022-10-30T07:47:30.918Z,12.53
2022-10-30T07:50:13.120Z,12.69
2022-10-30T07:52:46.433Z,12.86
2022-10-30T07:55:21.678Z,12.96
2022-10-30T07:57:54.048Z,13.23
2022-10-30T08:00:45.169Z,13.47
2022-10-30T08:03:27.210Z,13.62
2022-10-30T08:06:22.951Z,13.77
2022-10-30T08:08:59.376Z,14.01
2022-10-30T08:11:33.646Z,14.25
2022-10-30T08:14:06.091Z,14.50
2022-10-30T08:16:38.663Z,14.76
2022-10-30T08:19:10.981Z,15.00
2022-10-30T08:21:43.490Z,15.22
2022-10-30T08:24:22.180Z,15.50
2022-10-30T08:26:56.129Z,15.70
2022-10-30T08:29:29.054Z,15.99
2022-10-30T08:32:01.960Z,16.24
2022-10-30T08:35:06.944Z,16.53
2022-10-30T08:37:39.357Z,16.80
2022-10-30T08:40:12.767Z,16.99
2022-10-30T08:43:01.962Z,17.23
2022-10-30T08:45:34.860Z,17.40
2022-10-30T08:48:16.167Z,17.42
2022-10-30T08:50:49.761Z,17.41
2022-10-30T08:53:29.025Z,17.52
2022-10-30T08:56:02.229Z,17.48
2022-10-30T08:58:50.186Z,17.60
2022-10-30T09:01:22.760Z,17.45
2022-10-30T09:04:13.829Z,17.70
2022-10-30T09:07:07.494Z,17.90
2022-10-30T09:09:42.645Z,17.80
2022-10-30T09:12:17.256Z,17.81
2022-10-30T09:14:51.594Z,17.90
2022-10-30T09:17:24.502Z,18.03
2022-10-30T09:19:57.675Z,17.95
2022-10-30T09:22:41.243Z,17.82
2022-10-30T09:25:13.885Z,17.55
2022-10-30T09:27:55.710Z,17.62
2022-10-30T09:30:31.058Z,17.72
2022-10-30T09:33:06.096Z,17.88
2022-10-30T09:35:57.232Z,17.97
2022-10-30T09:38:29.909Z,18.14
2022-10-30T09:41:21.080Z,18.23
2022-10-30T09:44:09.242Z,18.52
2022-10-30T09:46:53.270Z,18.91
2022-10-30T09:49:40.921Z,18.94
2022-10-30T09:52:26.323Z,19.18
2022-10-30T09:55:16.842Z,19.44
2022-10-30T09:57:56.506Z,19.41
2022-10-30T10:00:37.408Z,19.69
2022-10-30T10:03:32.972Z,19.81
2022-10-30T10:06:26.365Z,19.83
2022-10-30T10:09:17.012Z,19.89
2022-10-30T10:12:12.286Z,19.97
2022-10-30T10:14:47.186Z,19.94
2022-10-30T10:17:28.197Z,20.11
2022-10-30T10:20:02.173Z,20.28
2022-10-30T10:22:40.974Z,20.37
2022-10-30T10:25:15.755Z,20.51
2022-10-30T10:28:05.503Z,20.60
2022-10-30T10:30:45.100Z,20.92
2022-10-30T10:33:45.833Z,20.77
2022-10-30T10:36:27.820Z,21.10
2022-10-30T10:39:14.420Z,21.19
2022-10-30T10:42:02.358Z,21.27
2022-10-30T10:44:46.494Z,21.35
2022-10-30T10:47:33.004Z,21.44
2022-10-30T10:50:19.435Z,21.36
2022-10-30T10:52:56.297Z,21.37
2022-10-30T10:55:33.481Z,21.57
2022-10-30T10:58:14.221Z,21.48
2022-10-30T11:00:46.741Z,21.78
2022-10-30T11:03:23.006Z,21.94
2022-10-30T11:06:00.229Z,22.18
2022-10-30T11:08:34.705Z,22.22
2022-10-30T11:11:07.313Z,22.35
2022-10-30T11:13:41.696Z,22.46
2022-10-30T11:16:25.530Z,22.36
2022-10-30T11:19:00.225Z,22.32
2022-10-30T11:21:39.008Z,22.54
2022-10-30T11:24:27.361Z,22.66
2022-10-30T11:27:17.105Z,22.76
2022-10-30T11:29:53.685Z,22.75
2022-10-30T11:32:28.453Z,22.88
2022-10-30T11:35:03.443Z,22.93
2022-10-30T11:37:38.240Z,22.91
2022-10-30T11:40:18.173Z,22.96
2022-10-30T11:42:58.112Z,23.04
2022-10-30T11:45:33.911Z,23.23
2022-10-30T11:48:13.812Z,23.46
2022-10-30T11:50:49.404Z,23.41
2022-10-30T11:53:30.001Z,23.38
2022-10-30T11:56:12.464Z,23.29
2022-10-30T11:58:48.051Z,23.32
2022-10-30T12:01:23.561Z,23.22
2022-10-30T12:03:56.996Z,23.26
2022-10-30T12:06:29.696Z,23.22
2022-10-30T12:09:09.788Z,23.08
2022-10-30T12:11:44.268Z,23.14
2022-10-30T12:14:19.866Z,23.14
2022-10-30T12:16:54.988Z,22.84
2022-10-30T12:19:27.437Z,23.01
2022-10-30T12:22:01.112Z,22.88
2022-10-30T12:24:37.593Z,22.86
2022-10-30T12:27:18.204Z,22.85
2022-10-30T12:30:11.201Z,22.94
2022-10-30T12:32:49.166Z,23.07
2022-10-30T12:35:45.151Z,22.76
2022-10-30T12:38:21.841Z,22.84
2022-10-30T12:41:07.001Z,23.04
2022-10-30T12:43:41.412Z,23.11
2022-10-30T12:46:26.198Z,23.02
2022-10-30T12:49:07.558Z,22.90
2022-10-30T12:51:46.039Z,22.97
2022-10-30T12:54:29.569Z,23.16
2022-10-30T12:57:09.041Z,23.04
2022-10-30T12:59:51.289Z,22.97
2022-10-30T13:02:32.711Z,23.35
2022-10-30T13:05:24.319Z,23.48
2022-10-30T13:08:13.284Z,23.25
2022-10-30T13:10:49.258Z,23.42
2022-10-30T13:13:27.583Z,23.68
2022-10-30T13:16:03.226Z,23.82
2022-10-30T13:18:36.964Z,23.99
2022-10-30T13:21:21.225Z,23.68
2022-10-30T13:23:58.566Z,23.84
2022-10-30T13:26:37.468Z,24.01
2022-10-30T13:29:20.106Z,24.02
2022-10-30T13:32:05.475Z,23.79
2022-10-30T13:34:48.090Z,23.79
2022-10-30T13:37:27.087Z,23.94
2022-10-30T13:40:13.809Z,23.95
2022-10-30T13:42:56.685Z,23.66
2022-10-30T13:45:55.609Z,23.73
2022-10-30T13:48:42.610Z,23.52
2022-10-30T13:51:28.036Z,23.29
2022-10-30T13:54:07.377Z,23.23
2022-10-30T13:56:40.385Z,23.29
2022-10-30T13:59:24.105Z,23.23
2022-10-30T14:02:04.543Z,22.95
2022-10-30T14:04:43.044Z,22.89
2022-10-30T14:07:25.155Z,22.20
2022-10-30T14:10:07.932Z,21.89
2022-10-30T14:12:51.281Z,21.59
2022-10-30T14:15:31.713Z,21.60
2022-10-30T14:18:44.817Z,21.70
2022-10-30T14:21:35.808Z,21.56
2022-10-30T14:24:14.266Z,21.39
2022-10-30T14:26:53.077Z,21.37
2022-10-30T14:29:47.866Z,21.38
2022-10-30T14:32:39.305Z,21.43
2022-10-30T14:35:42.263Z,21.18
2022-10-30T14:38:35.706Z,21.00
2022-10-30T14:41:40.397Z,20.90
2022-10-30T14:44:50.262Z,20.97
2022-10-30T14:47:46.194Z,20.94
2022-10-30T14:50:27.708Z,20.90
2022-10-30T14:53:35.051Z,20.95
2022-10-30T14:56:18.984Z,20.91
2022-10-30T14:59:30.984Z,20.67
2022-10-30T15:02:16.696Z,20.68
2022-10-30T15:05:09.972Z,20.69
2022-10-30T15:07:49.036Z,20.65
2022-10-30T15:10:30.998Z,20.59
2022-10-30T15:13:19.449Z,20.51
2022-10-30T15:15:57.878Z,20.47
2022-10-30T15:18:31.233Z,20.41
2022-10-30T15:21:06.288Z,20.38
2022-10-30T15:23:41.611Z,20.35
2022-10-30T15:26:20.540Z,20.36
2022-10-30T15:28:53.563Z,20.28
2022-10-30T15:31:28.064Z,20.25
2022-10-30T15:34:00.442Z,20.20
2022-10-30T15:36:40.372Z,20.14
2022-10-30T15:39:14.350Z,20.08
2022-10-30T15:41:50.259Z,20.01
2022-10-30T15:44:25.951Z,19.97
2022-10-30T15:47:01.234Z,19.87
2022-10-30T15:49:35.726Z,19.79
2022-10-30T15:52:15.234Z,19.71
2022-10-30T15:54:52.663Z,19.69
2022-10-30T15:57:57.454Z,19.61
2022-10-30T16:00:23.769Z,19.51
2022-10-30T16:03:03.922Z,19.42
2022-10-30T16:05:36.364Z,19.34
2022-10-30T16:08:13.956Z,19.22
2022-10-30T16:10:47.141Z,19.11
2022-10-30T16:13:27.777Z,19.04
2022-10-30T16:16:02.580Z,18.89
2022-10-30T16:18:36.131Z,18.83
2022-10-30T16:21:10.518Z,18.82
2022-10-30T16:23:48.126Z,18.76
2022-10-30T16:26:32.395Z,18.71
2022-10-30T16:29:21.250Z,18.66
2022-10-30T16:31:53.937Z,18.56
2022-10-30T16:34:31.112Z,18.49
2022-10-30T16:37:06.060Z,18.47
2022-10-30T16:39:39.375Z,18.42
2022-10-30T16:42:19.409Z,18.40
2022-10-30T16:45:14.154Z,18.35
2022-10-30T16:47:52.933Z,18.30
2022-10-30T16:50:32.865Z,18.24
2022-10-30T16:53:05.857Z,18.23
2022-10-30T16:55:38.281Z,18.22
2022-10-30T16:58:13.391Z,18.22
2022-10-30T17:00:51.580Z,18.09
2022-10-30T17:03:27.777Z,18.11
2022-10-30T17:06:02.052Z,18.04
2022-10-30T17:08:39.557Z,18.04
2022-10-30T17:11:19.160Z,17.96
2022-10-30T17:14:00.515Z,17.70
2022-10-30T17:16:37.407Z,17.68
2022-10-30T17:19:37.760Z,17.55
2022-10-30T17:22:15.632Z,17.38
2022-10-30T17:24:48.089Z,17.42
2022-10-30T17:27:35.750Z,17.35
2022-10-30T17:30:29.810Z,17.19
2022-10-30T17:33:21.781Z,17.12
2022-10-30T17:38:31.448Z,16.67
2022-10-30T17:41:04.684Z,16.59
2022-10-30T17:43:49.007Z,16.53
2022-10-30T17:46:21.776Z,16.50
2022-10-30T17:48:57.009Z,16.46
2022-10-30T17:51:31.681Z,16.41
2022-10-30T17:54:11.625Z,16.35
2022-10-30T17:56:44.171Z,16.33
2022-10-30T17:59:16.758Z,16.20
2022-10-30T18:01:49.348Z,16.07
2022-10-30T18:04:22.417Z,16.03
2022-10-30T18:06:54.914Z,15.96
2022-10-30T18:09:27.289Z,15.92
2022-10-30T18:11:59.623Z,15.93
2022-10-30T18:14:32.233Z,15.79
2022-10-30T18:17:04.578Z,15.72
2022-10-30T18:19:37.715Z,15.50
2022-10-30T18:22:10.390Z,15.22
2022-10-30T18:24:42.711Z,15.30
2022-10-30T18:27:15.020Z,15.20
2022-10-30T18:29:47.309Z,15.10
2022-10-30T18:32:19.696Z,15.06
2022-10-30T18:34:53.597Z,15.08
2022-10-30T18:37:26.841Z,14.99
2022-10-30T18:39:59.212Z,15.01
2022-10-30T18:42:31.599Z,14.84
2022-10-30T18:45:29.480Z,14.79
2022-10-30T18:48:02.171Z,14.69
2022-10-30T18:50:36.507Z,14.55
2022-10-30T18:53:14.248Z,14.46
2022-10-30T18:58:24.342Z,14.35
2022-10-30T19:01:11.552Z,14.23
2022-10-30T19:03:45.609Z,14.22
2022-10-30T19:06:20.712Z,14.22
2022-10-30T19:08:53.050Z,14.13
2022-10-30T19:11:26.726Z,14.07
2022-10-30T19:14:00.616Z,14.01
2022-10-30T19:16:33.290Z,13.94
2022-10-30T19:19:05.682Z,13.90
2022-10-30T19:21:38.631Z,13.83
2022-10-30T19:24:14.324Z,13.76
2022-10-30T19:26:46.646Z,13.73
2022-10-30T19:29:19.024Z,13.73
2022-10-30T19:31:51.349Z,13.60
2022-10-30T19:34:23.672Z,13.44
2022-10-30T19:36:56.678Z,13.35
2022-10-30T19:39:32.017Z,13.34
2022-10-30T19:42:04.484Z,13.28
2022-10-30T19:44:36.857Z,13.24
2022-10-30T19:47:10.102Z,13.19
2022-10-30T19:49:42.488Z,13.15
2022-10-30T19:52:15.506Z,13.15
2022-10-30T19:54:47.861Z,13.07
2022-10-30T19:57:20.173Z,12.80
2022-10-30T19:59:52.549Z,12.73
2022-10-30T20:02:24.868Z,12.53
2022-10-30T20:04:57.244Z,12.46
2022-10-30T20:07:30.217Z,12.46
2022-10-30T20:10:02.835Z,12.21
2022-10-30T20:12:35.260Z,12.13
2022-10-30T20:15:12.499Z,12.23
2022-10-30T20:17:45.886Z,12.23
2022-10-30T20:20:20.649Z,11.88
2022-10-30T20:22:54.252Z,12.00
2022-10-30T20:25:27.724Z,12.12
2022-10-30T20:28:05.668Z,12.17
2022-10-30T20:30:39.434Z,12.15
2022-10-30T20:33:13.409Z,12.12
2022-10-30T20:35:45.788Z,12.18
2022-10-30T20:38:20.421Z,11.90
2022-10-30T20:40:53.585Z,11.99
2022-10-30T20:43:29.142Z,12.06
2022-10-30T20:46:02.853Z,12.12
2022-10-30T20:48:37.125Z,12.11
2022-10-30T20:51:10.285Z,11.84
2022-10-30T20:53:43.286Z,11.76
2022-10-30T20:56:15.633Z,11.66
2022-10-30T20:58:47.933Z,11.44
2022-10-30T21:01:20.353Z,11.30
2022-10-30T21:03:55.379Z,11.39
2022-10-30T21:06:30.103Z,11.10
2022-10-30T21:09:03.426Z,11.15
2022-10-30T21:11:35.833Z,11.25
2022-10-30T21:14:08.147Z,11.29
2022-10-30T21:16:43.079Z,11.38
2022-10-30T21:19:15.800Z,11.25
2022-10-30T21:21:48.236Z,11.26
2022-10-30T21:24:21.250Z,11.20
2022-10-30T21:26:53.574Z,11.27
2022-10-30T21:29:26.311Z,11.20
2022-10-30T21:32:00.358Z,11.21
2022-10-30T21:34:32.730Z,11.21
2022-10-30T21:37:05.188Z,11.21
2022-10-30T21:39:38.271Z,11.13
2022-10-30T21:42:10.657Z,11.19
2022-10-30T21:44:42.961Z,11.03
2022-10-30T21:47:15.277Z,11.05
2022-10-30T21:49:47.597Z,10.96
2022-10-30T21:52:19.986Z,11.00
2022-10-30T21:54:52.991Z,10.93
2022-10-30T21:57:25.313Z,10.90
2022-10-30T22:00:00.070Z,10.77
2022-10-30T22:02:36.713Z,10.79
2022-10-30T22:05:09.355Z,10.84
2022-10-30T22:07:41.689Z,10.89
2022-10-30T22:10:14.785Z,10.69
2022-10-30T22:12:47.180Z,10.72
2022-10-30T22:15:19.471Z,10.61
2022-10-30T22:17:51.804Z,10.60
2022-10-30T22:20:24.253Z,10.43
2022-10-30T22:22:56.573Z,10.31
2022-10-30T22:25:29.521Z,10.44
2022-10-30T22:28:02.093Z,10.37
2022-10-30T22:30:34.573Z,10.16
2022-10-30T22:33:06.887Z,10.25
2022-10-30T22:35:39.173Z,10.13
2022-10-30T22:38:11.974Z,10.11
2022-10-30T22:40:44.989Z,10.10
2022-10-30T22:45:53.242Z,10.13
2022-10-30T22:48:25.544Z,10.14
2022-10-30T22:50:58.821Z,10.00
2022-10-30T22:53:32.697Z,10.00
2022-10-30T22:56:14.345Z,10.07
2022-10-30T22:58:47.965Z,9.82
2022-10-30T23:01:23.088Z,9.88
2022-10-30T23:03:57.337Z,10.00
2022-10-30T23:06:31.011Z,9.97
2022-10-30T23:09:06.489Z,9.88
2022-10-30T23:11:39.478Z,9.87
2022-10-30T23:14:11.883Z,9.89
2022-10-30T23:16:44.230Z,9.95
2022-10-30T23:19:16.599Z,9.88
2022-10-30T23:21:49.115Z,10.05
2022-10-30T23:24:21.453Z,10.08
2022-10-30T23:26:54.417Z,9.96
2022-10-30T23:29:26.739Z,10.03
2022-10-30T23:31:59.052Z,10.06
2022-10-30T23:34:31.416Z,10.10
2022-10-30T23:37:03.769Z,10.03
2022-10-30T23:39:36.089Z,10.07
2022-10-30T23:42:09.092Z,9.92
2022-10-30T23:44:41.400Z,9.96
2022-10-30T23:47:13.731Z,9.96
2022-10-30T23:49:46.102Z,9.81
2022-10-30T23:52:18.618Z,9.84
2022-10-30T23:54:51.585Z,9.82
2022-10-30T23:57:24.598Z,9.45
2022-10-30T23:59:56.927Z,9.45
